Pineville, South Carolina
Current Conditions -  °F | °C
As of 6:35 PM on Friday 19 Dec 2014 (Local Time) from KMKS Reporting Station
Clear Clear  
Wind Chill: 55°   Ceiling: Unl
Heat Index: 55°   Visibility: 10mi
Dew Point: 45°   Wind: 0mph
Humidity: 67%   Direction: NA
Pressure: 30.13"   Gusts: NA
Location:  33.43°N, 80.02°W
Report Text: KMKS 192335Z AUTO 00000KT 10SM CLR 13/07 A3013 RMK AO2
Loading
Personal Weather Stations






























Interactive Weather Map New forecast layout! Learn more

10-Day Weather Forecast

Advertisements
Track Severe Weather on mobile